sensor_id;sensor_type;location;lat;lon;timestamp;P1;durP1;ratioP1;P2;durP2;ratioP2
54805;SDS011;62866;55.776;37.496;2024-03-22T00:00:02;8.15;;;4.35;;
54805;SDS011;62866;55.776;37.496;2024-03-22T00:02:28;9.10;;;4.00;;
54805;SDS011;62866;55.776;37.496;2024-03-22T00:04:53;8.10;;;4.13;;
54805;SDS011;62866;55.776;37.496;2024-03-22T00:07:19;10.15;;;4.53;;
54805;SDS011;62866;55.776;37.496;2024-03-22T00:09:44;11.43;;;4.45;;
54805;SDS011;62866;55.776;37.496;2024-03-22T00:12:10;9.98;;;4.47;;
54805;SDS011;62866;55.776;37.496;2024-03-22T00:14:35;13.77;;;4.18;;
54805;SDS011;62866;55.776;37.496;2024-03-22T00:17:01;11.07;;;4.65;;
54805;SDS011;62866;55.776;37.496;2024-03-22T00:19:26;8.25;;;4.30;;
54805;SDS011;62866;55.776;37.496;2024-03-22T00:21:52;9.10;;;4.30;;
54805;SDS011;62866;55.776;37.496;2024-03-22T00:24:17;12.57;;;4.65;;
54805;SDS011;62866;55.776;37.496;2024-03-22T00:26:43;8.55;;;4.75;;
54805;SDS011;62866;55.776;37.496;2024-03-22T00:29:08;15.10;;;5.00;;
54805;SDS011;62866;55.776;37.496;2024-03-22T00:31:34;10.07;;;3.70;;
54805;SDS011;62866;55.776;37.496;2024-03-22T00:33:59;10.75;;;5.13;;
54805;SDS011;62866;55.776;37.496;2024-03-22T00:36:24;9.00;;;4.20;;
54805;SDS011;62866;55.776;37.496;2024-03-22T00:38:50;6.72;;;3.95;;
54805;SDS011;62866;55.776;37.496;2024-03-22T00:41:15;6.57;;;4.20;;
54805;SDS011;62866;55.776;37.496;2024-03-22T00:43:41;9.73;;;4.47;;
54805;SDS011;62866;55.776;37.496;2024-03-22T00:46:06;9.30;;;4.22;;
54805;SDS011;62866;55.776;37.496;2024-03-22T00:48:32;8.50;;;4.30;;
54805;SDS011;62866;55.776;37.496;2024-03-22T00:51:00;8.27;;;4.13;;
54805;SDS011;62866;55.776;37.496;2024-03-22T00:53:25;10.50;;;4.97;;
54805;SDS011;62866;55.776;37.496;2024-03-22T00:55:51;7.97;;;4.10;;
54805;SDS011;62866;55.776;37.496;2024-03-22T00:58:19;12.45;;;4.13;;
54805;SDS011;62866;55.776;37.496;2024-03-22T01:00:46;6.60;;;4.10;;
54805;SDS011;62866;55.776;37.496;2024-03-22T01:03:11;8.98;;;4.28;;
54805;SDS011;62866;55.776;37.496;2024-03-22T01:05:37;13.18;;;4.05;;
54805;SDS011;62866;55.776;37.496;2024-03-22T01:08:03;10.90;;;4.40;;
54805;SDS011;62866;55.776;37.496;2024-03-22T01:10:30;9.38;;;4.13;;
54805;SDS011;62866;55.776;37.496;2024-03-22T01:12:55;8.30;;;4.25;;
54805;SDS011;62866;55.776;37.496;2024-03-22T01:15:20;10.50;;;4.72;;
54805;SDS011;62866;55.776;37.496;2024-03-22T01:17:46;8.77;;;3.88;;
54805;SDS011;62866;55.776;37.496;2024-03-22T01:20:11;12.02;;;4.80;;
54805;SDS011;62866;55.776;37.496;2024-03-22T01:22:37;8.63;;;4.07;;
54805;SDS011;62866;55.776;37.496;2024-03-22T01:25:02;10.45;;;3.72;;
54805;SDS011;62866;55.776;37.496;2024-03-22T01:27:28;7.78;;;4.20;;
54805;SDS011;62866;55.776;37.496;2024-03-22T01:29:54;12.13;;;4.53;;
54805;SDS011;62866;55.776;37.496;2024-03-22T01:32:19;12.27;;;3.83;;
54805;SDS011;62866;55.776;37.496;2024-03-22T01:34:44;7.68;;;3.10;;
54805;SDS011;62866;55.776;37.496;2024-03-22T01:37:10;7.60;;;3.85;;
54805;SDS011;62866;55.776;37.496;2024-03-22T01:39:35;10.13;;;5.05;;
54805;SDS011;62866;55.776;37.496;2024-03-22T01:42:01;10.05;;;3.72;;
54805;SDS011;62866;55.776;37.496;2024-03-22T01:44:27;11.00;;;4.25;;
54805;SDS011;62866;55.776;37.496;2024-03-22T01:46:53;5.25;;;3.33;;
54805;SDS011;62866;55.776;37.496;2024-03-22T01:49:19;10.70;;;4.38;;
54805;SDS011;62866;55.776;37.496;2024-03-22T01:51:44;12.93;;;5.15;;
54805;SDS011;62866;55.776;37.496;2024-03-22T01:54:10;9.95;;;4.28;;
54805;SDS011;62866;55.776;37.496;2024-03-22T01:56:39;10.40;;;4.55;;
54805;SDS011;62866;55.776;37.496;2024-03-22T01:59:05;7.13;;;3.58;;
54805;SDS011;62866;55.776;37.496;2024-03-22T02:01:31;13.10;;;4.43;;
54805;SDS011;62866;55.776;37.496;2024-03-22T02:03:57;13.60;;;4.28;;
54805;SDS011;62866;55.776;37.496;2024-03-22T02:06:23;6.85;;;4.05;;
54805;SDS011;62866;55.776;37.496;2024-03-22T02:08:49;8.93;;;4.60;;
54805;SDS011;62866;55.776;37.496;2024-03-22T02:11:14;11.43;;;4.55;;
54805;SDS011;62866;55.776;37.496;2024-03-22T02:13:40;8.13;;;4.45;;
54805;SDS011;62866;55.776;37.496;2024-03-22T02:16:05;8.95;;;4.30;;
54805;SDS011;62866;55.776;37.496;2024-03-22T02:18:31;5.57;;;3.10;;
54805;SDS011;62866;55.776;37.496;2024-03-22T02:20:57;6.30;;;3.53;;
54805;SDS011;62866;55.776;37.496;2024-03-22T02:26:01;11.52;;;4.22;;
54805;SDS011;62866;55.776;37.496;2024-03-22T02:28:28;9.00;;;3.97;;
54805;SDS011;62866;55.776;37.496;2024-03-22T02:30:54;12.25;;;4.63;;
54805;SDS011;62866;55.776;37.496;2024-03-22T02:33:19;8.65;;;4.18;;
54805;SDS011;62866;55.776;37.496;2024-03-22T02:35:49;10.70;;;3.38;;
54805;SDS011;62866;55.776;37.496;2024-03-22T02:38:15;10.75;;;4.38;;
54805;SDS011;62866;55.776;37.496;2024-03-22T02:40:44;9.57;;;3.80;;
54805;SDS011;62866;55.776;37.496;2024-03-22T02:43:10;11.85;;;4.50;;
54805;SDS011;62866;55.776;37.496;2024-03-22T02:45:36;10.05;;;3.55;;
54805;SDS011;62866;55.776;37.496;2024-03-22T02:48:02;15.27;;;4.43;;
54805;SDS011;62866;55.776;37.496;2024-03-22T02:50:32;10.20;;;4.70;;
54805;SDS011;62866;55.776;37.496;2024-03-22T02:52:58;12.68;;;4.32;;
54805;SDS011;62866;55.776;37.496;2024-03-22T02:55:23;11.32;;;4.95;;
54805;SDS011;62866;55.776;37.496;2024-03-22T02:57:49;13.93;;;4.07;;
54805;SDS011;62866;55.776;37.496;2024-03-22T03:00:15;12.27;;;4.10;;
54805;SDS011;62866;55.776;37.496;2024-03-22T03:02:40;8.68;;;4.38;;
54805;SDS011;62866;55.776;37.496;2024-03-22T03:05:06;8.98;;;4.30;;
54805;SDS011;62866;55.776;37.496;2024-03-22T03:07:32;9.57;;;4.65;;
54805;SDS011;62866;55.776;37.496;2024-03-22T03:09:57;12.77;;;5.70;;
54805;SDS011;62866;55.776;37.496;2024-03-22T03:12:22;11.57;;;4.50;;
54805;SDS011;62866;55.776;37.496;2024-03-22T03:14:48;10.30;;;4.85;;
54805;SDS011;62866;55.776;37.496;2024-03-22T03:17:13;14.40;;;4.57;;
54805;SDS011;62866;55.776;37.496;2024-03-22T03:19:39;8.02;;;4.45;;
54805;SDS011;62866;55.776;37.496;2024-03-22T03:22:04;10.55;;;4.18;;
54805;SDS011;62866;55.776;37.496;2024-03-22T03:24:30;11.77;;;4.70;;
54805;SDS011;62866;55.776;37.496;2024-03-22T03:26:56;9.65;;;4.25;;
54805;SDS011;62866;55.776;37.496;2024-03-22T03:29:21;6.35;;;3.85;;
54805;SDS011;62866;55.776;37.496;2024-03-22T03:31:47;10.15;;;5.00;;
54805;SDS011;62866;55.776;37.496;2024-03-22T03:34:13;13.15;;;4.65;;
54805;SDS011;62866;55.776;37.496;2024-03-22T03:36:39;10.77;;;4.20;;
54805;SDS011;62866;55.776;37.496;2024-03-22T03:39:04;11.18;;;5.07;;
54805;SDS011;62866;55.776;37.496;2024-03-22T03:41:30;8.60;;;4.43;;
54805;SDS011;62866;55.776;37.496;2024-03-22T03:43:56;7.38;;;3.80;;
54805;SDS011;62866;55.776;37.496;2024-03-22T03:46:21;10.13;;;4.18;;
54805;SDS011;62866;55.776;37.496;2024-03-22T03:48:47;10.82;;;4.65;;
54805;SDS011;62866;55.776;37.496;2024-03-22T03:51:12;10.07;;;4.70;;
54805;SDS011;62866;55.776;37.496;2024-03-22T03:53:37;12.90;;;5.57;;
54805;SDS011;62866;55.776;37.496;2024-03-22T03:56:03;10.90;;;4.82;;
54805;SDS011;62866;55.776;37.496;2024-03-22T03:58:29;13.52;;;4.75;;
54805;SDS011;62866;55.776;37.496;2024-03-22T04:00:54;9.57;;;4.57;;
54805;SDS011;62866;55.776;37.496;2024-03-22T04:03:19;15.35;;;5.20;;
54805;SDS011;62866;55.776;37.496;2024-03-22T04:05:45;15.38;;;5.50;;
54805;SDS011;62866;55.776;37.496;2024-03-22T04:08:11;10.82;;;5.00;;
54805;SDS011;62866;55.776;37.496;2024-03-22T04:10:36;10.40;;;5.00;;
54805;SDS011;62866;55.776;37.496;2024-03-22T04:13:02;16.20;;;4.72;;
54805;SDS011;62866;55.776;37.496;2024-03-22T04:15:27;11.02;;;5.57;;
54805;SDS011;62866;55.776;37.496;2024-03-22T04:17:55;13.02;;;5.38;;
54805;SDS011;62866;55.776;37.496;2024-03-22T04:20:21;11.55;;;5.68;;
54805;SDS011;62866;55.776;37.496;2024-03-22T04:22:47;8.40;;;4.72;;
54805;SDS011;62866;55.776;37.496;2024-03-22T04:25:14;11.90;;;5.15;;
54805;SDS011;62866;55.776;37.496;2024-03-22T04:27:40;13.52;;;5.95;;
54805;SDS011;62866;55.776;37.496;2024-03-22T04:30:05;14.75;;;5.85;;
54805;SDS011;62866;55.776;37.496;2024-03-22T04:32:31;12.13;;;5.93;;
54805;SDS011;62866;55.776;37.496;2024-03-22T04:34:57;11.88;;;5.95;;
54805;SDS011;62866;55.776;37.496;2024-03-22T04:37:22;11.93;;;5.45;;
54805;SDS011;62866;55.776;37.496;2024-03-22T04:39:48;14.32;;;6.85;;
54805;SDS011;62866;55.776;37.496;2024-03-22T04:42:14;16.88;;;6.30;;
54805;SDS011;62866;55.776;37.496;2024-03-22T04:44:41;13.18;;;5.25;;
54805;SDS011;62866;55.776;37.496;2024-03-22T04:47:06;13.52;;;6.45;;
54805;SDS011;62866;55.776;37.496;2024-03-22T04:49:32;10.75;;;5.70;;
54805;SDS011;62866;55.776;37.496;2024-03-22T04:51:57;15.82;;;6.78;;
54805;SDS011;62866;55.776;37.496;2024-03-22T04:54:23;10.73;;;5.25;;
54805;SDS011;62866;55.776;37.496;2024-03-22T04:56:48;11.85;;;5.68;;
54805;SDS011;62866;55.776;37.496;2024-03-22T04:59:13;14.13;;;7.35;;
54805;SDS011;62866;55.776;37.496;2024-03-22T05:01:39;13.88;;;7.25;;
54805;SDS011;62866;55.776;37.496;2024-03-22T05:04:04;12.65;;;6.63;;
54805;SDS011;62866;55.776;37.496;2024-03-22T05:06:30;19.30;;;7.88;;
54805;SDS011;62866;55.776;37.496;2024-03-22T05:08:55;14.60;;;7.15;;
54805;SDS011;62866;55.776;37.496;2024-03-22T05:11:21;17.80;;;7.32;;
54805;SDS011;62866;55.776;37.496;2024-03-22T05:13:46;14.20;;;6.50;;
54805;SDS011;62866;55.776;37.496;2024-03-22T05:16:12;18.58;;;7.50;;
54805;SDS011;62866;55.776;37.496;2024-03-22T05:18:37;12.20;;;6.65;;
54805;SDS011;62866;55.776;37.496;2024-03-22T05:21:03;19.48;;;8.27;;
54805;SDS011;62866;55.776;37.496;2024-03-22T05:23:28;16.98;;;7.78;;
54805;SDS011;62866;55.776;37.496;2024-03-22T05:25:54;13.27;;;8.00;;
54805;SDS011;62866;55.776;37.496;2024-03-22T05:28:19;17.25;;;7.32;;
54805;SDS011;62866;55.776;37.496;2024-03-22T05:30:45;17.20;;;7.63;;
54805;SDS011;62866;55.776;37.496;2024-03-22T05:33:12;15.60;;;7.03;;
54805;SDS011;62866;55.776;37.496;2024-03-22T05:35:37;12.68;;;7.30;;
54805;SDS011;62866;55.776;37.496;2024-03-22T05:38:03;16.13;;;7.93;;
54805;SDS011;62866;55.776;37.496;2024-03-22T05:40:29;11.93;;;5.95;;
54805;SDS011;62866;55.776;37.496;2024-03-22T05:43:00;16.27;;;7.75;;
54805;SDS011;62866;55.776;37.496;2024-03-22T05:45:28;16.27;;;7.97;;
54805;SDS011;62866;55.776;37.496;2024-03-22T05:47:54;19.55;;;8.88;;
54805;SDS011;62866;55.776;37.496;2024-03-22T05:50:19;15.27;;;7.47;;
54805;SDS011;62866;55.776;37.496;2024-03-22T05:52:45;16.35;;;8.30;;
54805;SDS011;62866;55.776;37.496;2024-03-22T05:55:11;16.00;;;8.32;;
54805;SDS011;62866;55.776;37.496;2024-03-22T05:57:36;10.70;;;7.53;;
54805;SDS011;62866;55.776;37.496;2024-03-22T06:00:02;17.35;;;7.32;;
54805;SDS011;62866;55.776;37.496;2024-03-22T06:02:32;10.07;;;6.38;;
54805;SDS011;62866;55.776;37.496;2024-03-22T06:04:58;19.45;;;8.13;;
54805;SDS011;62866;55.776;37.496;2024-03-22T06:07:24;14.23;;;8.18;;
54805;SDS011;62866;55.776;37.496;2024-03-22T06:09:50;16.50;;;8.70;;
54805;SDS011;62866;55.776;37.496;2024-03-22T06:12:17;17.00;;;8.95;;
54805;SDS011;62866;55.776;37.496;2024-03-22T06:14:43;19.67;;;9.18;;
54805;SDS011;62866;55.776;37.496;2024-03-22T06:17:09;15.50;;;9.55;;
54805;SDS011;62866;55.776;37.496;2024-03-22T06:19:35;10.65;;;7.82;;
54805;SDS011;62866;55.776;37.496;2024-03-22T06:22:01;15.10;;;8.30;;
54805;SDS011;62866;55.776;37.496;2024-03-22T06:24:27;17.55;;;8.50;;
54805;SDS011;62866;55.776;37.496;2024-03-22T06:26:53;19.05;;;9.93;;
54805;SDS011;62866;55.776;37.496;2024-03-22T06:29:19;17.42;;;10.57;;
54805;SDS011;62866;55.776;37.496;2024-03-22T06:31:45;19.90;;;10.18;;
54805;SDS011;62866;55.776;37.496;2024-03-22T06:34:19;19.40;;;10.40;;
54805;SDS011;62866;55.776;37.496;2024-03-22T06:36:45;11.88;;;8.02;;
54805;SDS011;62866;55.776;37.496;2024-03-22T06:39:20;14.70;;;10.40;;
54805;SDS011;62866;55.776;37.496;2024-03-22T06:41:49;14.05;;;8.60;;
54805;SDS011;62866;55.776;37.496;2024-03-22T06:44:14;14.20;;;8.68;;
54805;SDS011;62866;55.776;37.496;2024-03-22T06:46:40;16.98;;;9.88;;
54805;SDS011;62866;55.776;37.496;2024-03-22T06:49:05;16.40;;;9.75;;
54805;SDS011;62866;55.776;37.496;2024-03-22T06:51:40;14.15;;;9.13;;
54805;SDS011;62866;55.776;37.496;2024-03-22T06:54:05;17.42;;;9.70;;
54805;SDS011;62866;55.776;37.496;2024-03-22T06:56:30;19.00;;;10.68;;
54805;SDS011;62866;55.776;37.496;2024-03-22T06:58:56;17.02;;;9.68;;
54805;SDS011;62866;55.776;37.496;2024-03-22T07:01:27;16.77;;;9.18;;
54805;SDS011;62866;55.776;37.496;2024-03-22T07:03:53;18.20;;;9.65;;
54805;SDS011;62866;55.776;37.496;2024-03-22T07:06:19;16.52;;;9.48;;
54805;SDS011;62866;55.776;37.496;2024-03-22T07:08:48;16.73;;;10.40;;
54805;SDS011;62866;55.776;37.496;2024-03-22T07:11:16;18.95;;;10.32;;
54805;SDS011;62866;55.776;37.496;2024-03-22T07:13:42;21.95;;;10.55;;
54805;SDS011;62866;55.776;37.496;2024-03-22T07:16:07;15.40;;;9.73;;
54805;SDS011;62866;55.776;37.496;2024-03-22T07:18:33;18.05;;;10.20;;
54805;SDS011;62866;55.776;37.496;2024-03-22T07:20:58;17.60;;;10.93;;
54805;SDS011;62866;55.776;37.496;2024-03-22T07:23:26;15.18;;;9.13;;
54805;SDS011;62866;55.776;37.496;2024-03-22T07:25:52;17.95;;;10.93;;
54805;SDS011;62866;55.776;37.496;2024-03-22T07:28:17;15.32;;;8.80;;
54805;SDS011;62866;55.776;37.496;2024-03-22T07:30:43;17.45;;;9.93;;
54805;SDS011;62866;55.776;37.496;2024-03-22T07:33:10;19.35;;;10.60;;
54805;SDS011;62866;55.776;37.496;2024-03-22T07:35:38;18.48;;;10.70;;
54805;SDS011;62866;55.776;37.496;2024-03-22T07:38:04;18.85;;;9.60;;
54805;SDS011;62866;55.776;37.496;2024-03-22T07:40:29;18.58;;;11.18;;
54805;SDS011;62866;55.776;37.496;2024-03-22T07:42:55;21.80;;;9.73;;
54805;SDS011;62866;55.776;37.496;2024-03-22T07:45:21;13.45;;;8.65;;
54805;SDS011;62866;55.776;37.496;2024-03-22T07:47:49;17.85;;;9.48;;
54805;SDS011;62866;55.776;37.496;2024-03-22T07:50:14;17.48;;;9.80;;
54805;SDS011;62866;55.776;37.496;2024-03-22T07:52:40;14.50;;;9.25;;
54805;SDS011;62866;55.776;37.496;2024-03-22T07:55:08;12.02;;;7.75;;
54805;SDS011;62866;55.776;37.496;2024-03-22T07:57:34;12.43;;;7.72;;
54805;SDS011;62866;55.776;37.496;2024-03-22T08:00:02;11.57;;;8.73;;
54805;SDS011;62866;55.776;37.496;2024-03-22T08:02:34;12.55;;;6.97;;
54805;SDS011;62866;55.776;37.496;2024-03-22T08:05:00;18.27;;;8.95;;
54805;SDS011;62866;55.776;37.496;2024-03-22T08:07:29;10.85;;;8.00;;
54805;SDS011;62866;55.776;37.496;2024-03-22T08:09:55;12.48;;;7.88;;
54805;SDS011;62866;55.776;37.496;2024-03-22T08:12:21;12.15;;;7.82;;
54805;SDS011;62866;55.776;37.496;2024-03-22T08:14:49;15.20;;;7.55;;
54805;SDS011;62866;55.776;37.496;2024-03-22T08:17:15;14.10;;;6.72;;
54805;SDS011;62866;55.776;37.496;2024-03-22T08:19:47;14.93;;;8.30;;
54805;SDS011;62866;55.776;37.496;2024-03-22T08:22:15;14.48;;;8.38;;
54805;SDS011;62866;55.776;37.496;2024-03-22T08:24:40;11.07;;;7.20;;
54805;SDS011;62866;55.776;37.496;2024-03-22T08:27:06;17.15;;;8.52;;
54805;SDS011;62866;55.776;37.496;2024-03-22T08:29:31;16.85;;;8.32;;
54805;SDS011;62866;55.776;37.496;2024-03-22T08:31:57;12.63;;;7.80;;
54805;SDS011;62866;55.776;37.496;2024-03-22T08:34:22;12.25;;;7.50;;
54805;SDS011;62866;55.776;37.496;2024-03-22T08:36:48;14.52;;;8.18;;
54805;SDS011;62866;55.776;37.496;2024-03-22T08:39:16;15.48;;;7.97;;
54805;SDS011;62866;55.776;37.496;2024-03-22T08:41:41;11.48;;;7.35;;
54805;SDS011;62866;55.776;37.496;2024-03-22T08:44:07;15.70;;;6.85;;
54805;SDS011;62866;55.776;37.496;2024-03-22T08:46:32;12.15;;;7.90;;
54805;SDS011;62866;55.776;37.496;2024-03-22T08:49:03;12.75;;;7.10;;
54805;SDS011;62866;55.776;37.496;2024-03-22T08:51:28;10.68;;;6.95;;
54805;SDS011;62866;55.776;37.496;2024-03-22T08:53:56;14.60;;;8.40;;
54805;SDS011;62866;55.776;37.496;2024-03-22T08:56:22;10.73;;;7.57;;
54805;SDS011;62866;55.776;37.496;2024-03-22T08:58:47;11.05;;;7.38;;
54805;SDS011;62866;55.776;37.496;2024-03-22T09:01:13;14.32;;;8.02;;
54805;SDS011;62866;55.776;37.496;2024-03-22T09:03:38;11.70;;;6.75;;
54805;SDS011;62866;55.776;37.496;2024-03-22T09:06:11;10.15;;;7.32;;
54805;SDS011;62866;55.776;37.496;2024-03-22T09:08:36;11.38;;;7.50;;
54805;SDS011;62866;55.776;37.496;2024-03-22T09:11:02;16.80;;;8.05;;
54805;SDS011;62866;55.776;37.496;2024-03-22T09:13:28;10.70;;;7.70;;
54805;SDS011;62866;55.776;37.496;2024-03-22T09:15:57;16.25;;;7.70;;
54805;SDS011;62866;55.776;37.496;2024-03-22T09:18:23;12.45;;;6.93;;
54805;SDS011;62866;55.776;37.496;2024-03-22T09:20:48;11.02;;;7.28;;
54805;SDS011;62866;55.776;37.496;2024-03-22T09:23:16;15.90;;;7.28;;
54805;SDS011;62866;55.776;37.496;2024-03-22T09:25:48;12.10;;;7.38;;
54805;SDS011;62866;55.776;37.496;2024-03-22T09:28:16;12.60;;;6.68;;
54805;SDS011;62866;55.776;37.496;2024-03-22T09:30:47;11.80;;;5.57;;
54805;SDS011;62866;55.776;37.496;2024-03-22T09:33:13;11.27;;;6.00;;
54805;SDS011;62866;55.776;37.496;2024-03-22T09:35:38;19.30;;;7.05;;
54805;SDS011;62866;55.776;37.496;2024-03-22T09:38:04;14.77;;;7.13;;
54805;SDS011;62866;55.776;37.496;2024-03-22T09:40:32;17.25;;;7.32;;
54805;SDS011;62866;55.776;37.496;2024-03-22T09:43:08;8.70;;;5.80;;
54805;SDS011;62866;55.776;37.496;2024-03-22T09:45:40;14.07;;;7.43;;
54805;SDS011;62866;55.776;37.496;2024-03-22T09:48:09;15.55;;;7.63;;
54805;SDS011;62866;55.776;37.496;2024-03-22T09:50:37;18.58;;;7.15;;
54805;SDS011;62866;55.776;37.496;2024-03-22T09:53:06;15.95;;;7.15;;
54805;SDS011;62866;55.776;37.496;2024-03-22T09:55:33;18.08;;;8.60;;
54805;SDS011;62866;55.776;37.496;2024-03-22T09:58:08;11.93;;;7.00;;
54805;SDS011;62866;55.776;37.496;2024-03-22T10:00:37;17.42;;;7.47;;
54805;SDS011;62866;55.776;37.496;2024-03-22T10:03:03;16.85;;;7.85;;
54805;SDS011;62866;55.776;37.496;2024-03-22T10:05:37;13.63;;;6.68;;
54805;SDS011;62866;55.776;37.496;2024-03-22T10:08:03;14.20;;;6.40;;
54805;SDS011;62866;55.776;37.496;2024-03-22T10:10:32;15.95;;;7.75;;
54805;SDS011;62866;55.776;37.496;2024-03-22T10:13:00;16.88;;;7.75;;
54805;SDS011;62866;55.776;37.496;2024-03-22T10:15:29;16.00;;;6.47;;
54805;SDS011;62866;55.776;37.496;2024-03-22T10:17:56;15.70;;;7.20;;
54805;SDS011;62866;55.776;37.496;2024-03-22T10:20:22;10.77;;;5.90;;
54805;SDS011;62866;55.776;37.496;2024-03-22T10:23:00;11.55;;;6.15;;
54805;SDS011;62866;55.776;37.496;2024-03-22T10:25:26;12.90;;;5.82;;
54805;SDS011;62866;55.776;37.496;2024-03-22T10:27:53;9.85;;;5.43;;
54805;SDS011;62866;55.776;37.496;2024-03-22T10:30:19;12.25;;;6.45;;
54805;SDS011;62866;55.776;37.496;2024-03-22T10:32:46;11.98;;;6.03;;
54805;SDS011;62866;55.776;37.496;2024-03-22T10:35:12;9.18;;;5.45;;
54805;SDS011;62866;55.776;37.496;2024-03-22T10:37:38;11.05;;;5.53;;
54805;SDS011;62866;55.776;37.496;2024-03-22T10:40:05;12.90;;;6.63;;
54805;SDS011;62866;55.776;37.496;2024-03-22T10:42:40;8.57;;;4.88;;
54805;SDS011;62866;55.776;37.496;2024-03-22T10:45:07;10.73;;;5.57;;
54805;SDS011;62866;55.776;37.496;2024-03-22T10:47:35;12.60;;;4.35;;
54805;SDS011;62866;55.776;37.496;2024-03-22T10:52:38;11.13;;;4.85;;
54805;SDS011;62866;55.776;37.496;2024-03-22T10:55:08;7.85;;;3.70;;
54805;SDS011;62866;55.776;37.496;2024-03-22T10:57:38;7.43;;;4.47;;
54805;SDS011;62866;55.776;37.496;2024-03-22T11:00:08;6.55;;;3.88;;
54805;SDS011;62866;55.776;37.496;2024-03-22T11:02:35;13.35;;;5.55;;
54805;SDS011;62866;55.776;37.496;2024-03-22T11:05:08;9.57;;;5.25;;
54805;SDS011;62866;55.776;37.496;2024-03-22T11:07:43;15.40;;;5.05;;
54805;SDS011;62866;55.776;37.496;2024-03-22T11:10:09;9.38;;;4.35;;
54805;SDS011;62866;55.776;37.496;2024-03-22T11:12:40;8.38;;;4.45;;
54805;SDS011;62866;55.776;37.496;2024-03-22T11:15:06;6.80;;;3.95;;
54805;SDS011;62866;55.776;37.496;2024-03-22T11:17:34;9.48;;;5.05;;
54805;SDS011;62866;55.776;37.496;2024-03-22T11:19:59;10.40;;;4.15;;
54805;SDS011;62866;55.776;37.496;2024-03-22T11:22:25;10.63;;;4.85;;
54805;SDS011;62866;55.776;37.496;2024-03-22T11:24:52;13.52;;;4.30;;
54805;SDS011;62866;55.776;37.496;2024-03-22T11:27:17;11.88;;;4.28;;
54805;SDS011;62866;55.776;37.496;2024-03-22T11:29:44;12.50;;;4.68;;
54805;SDS011;62866;55.776;37.496;2024-03-22T11:32:14;8.48;;;3.90;;
54805;SDS011;62866;55.776;37.496;2024-03-22T11:34:40;7.22;;;3.35;;
54805;SDS011;62866;55.776;37.496;2024-03-22T11:37:06;7.38;;;4.18;;
54805;SDS011;62866;55.776;37.496;2024-03-22T11:39:35;9.15;;;3.38;;
54805;SDS011;62866;55.776;37.496;2024-03-22T11:42:03;7.28;;;3.70;;
54805;SDS011;62866;55.776;37.496;2024-03-22T11:44:34;7.35;;;3.72;;
54805;SDS011;62866;55.776;37.496;2024-03-22T11:47:04;7.53;;;3.90;;
54805;SDS011;62866;55.776;37.496;2024-03-22T11:49:39;8.27;;;4.18;;
54805;SDS011;62866;55.776;37.496;2024-03-22T11:52:08;7.65;;;3.38;;
54805;SDS011;62866;55.776;37.496;2024-03-22T11:54:33;9.57;;;4.55;;
54805;SDS011;62866;55.776;37.496;2024-03-22T11:56:59;12.05;;;4.75;;
54805;SDS011;62866;55.776;37.496;2024-03-22T11:59:24;8.82;;;4.60;;
54805;SDS011;62866;55.776;37.496;2024-03-22T12:01:50;12.02;;;5.55;;
54805;SDS011;62866;55.776;37.496;2024-03-22T12:04:18;11.80;;;5.32;;
54805;SDS011;62866;55.776;37.496;2024-03-22T12:06:44;8.98;;;4.35;;
54805;SDS011;62866;55.776;37.496;2024-03-22T12:09:13;6.22;;;3.20;;
54805;SDS011;62866;55.776;37.496;2024-03-22T12:11:39;6.38;;;4.03;;
54805;SDS011;62866;55.776;37.496;2024-03-22T12:14:08;7.40;;;4.22;;
54805;SDS011;62866;55.776;37.496;2024-03-22T12:16:33;9.88;;;4.40;;
54805;SDS011;62866;55.776;37.496;2024-03-22T12:18:59;9.25;;;5.10;;
54805;SDS011;62866;55.776;37.496;2024-03-22T12:21:24;7.90;;;4.50;;
54805;SDS011;62866;55.776;37.496;2024-03-22T12:23:53;7.65;;;3.80;;
54805;SDS011;62866;55.776;37.496;2024-03-22T12:26:19;9.90;;;4.30;;
54805;SDS011;62866;55.776;37.496;2024-03-22T12:28:44;9.88;;;4.18;;
54805;SDS011;62866;55.776;37.496;2024-03-22T12:31:10;10.63;;;4.20;;
54805;SDS011;62866;55.776;37.496;2024-03-22T12:33:38;9.05;;;4.85;;
54805;SDS011;62866;55.776;37.496;2024-03-22T12:36:04;11.55;;;4.53;;
54805;SDS011;62866;55.776;37.496;2024-03-22T12:38:32;10.38;;;4.05;;
54805;SDS011;62866;55.776;37.496;2024-03-22T12:41:01;9.73;;;4.18;;
54805;SDS011;62866;55.776;37.496;2024-03-22T12:43:27;7.90;;;4.07;;
54805;SDS011;62866;55.776;37.496;2024-03-22T12:45:52;8.68;;;3.80;;
54805;SDS011;62866;55.776;37.496;2024-03-22T12:48:18;7.20;;;3.70;;
54805;SDS011;62866;55.776;37.496;2024-03-22T12:50:46;6.15;;;2.67;;
54805;SDS011;62866;55.776;37.496;2024-03-22T12:53:11;8.48;;;4.20;;
54805;SDS011;62866;55.776;37.496;2024-03-22T12:55:37;8.55;;;3.65;;
54805;SDS011;62866;55.776;37.496;2024-03-22T12:58:02;7.47;;;3.22;;
54805;SDS011;62866;55.776;37.496;2024-03-22T13:00:29;8.27;;;3.92;;
54805;SDS011;62866;55.776;37.496;2024-03-22T13:02:55;6.22;;;3.60;;
54805;SDS011;62866;55.776;37.496;2024-03-22T13:05:20;8.65;;;4.18;;
54805;SDS011;62866;55.776;37.496;2024-03-22T13:07:46;4.43;;;2.65;;
54805;SDS011;62866;55.776;37.496;2024-03-22T13:10:12;8.02;;;4.05;;
54805;SDS011;62866;55.776;37.496;2024-03-22T13:12:37;5.47;;;3.20;;
54805;SDS011;62866;55.776;37.496;2024-03-22T13:15:03;6.18;;;3.50;;
54805;SDS011;62866;55.776;37.496;2024-03-22T13:17:29;7.55;;;4.00;;
54805;SDS011;62866;55.776;37.496;2024-03-22T13:19:55;8.88;;;3.40;;
54805;SDS011;62866;55.776;37.496;2024-03-22T13:22:20;5.88;;;3.28;;
54805;SDS011;62866;55.776;37.496;2024-03-22T13:24:46;7.20;;;3.13;;
54805;SDS011;62866;55.776;37.496;2024-03-22T13:27:12;7.40;;;3.15;;
54805;SDS011;62866;55.776;37.496;2024-03-22T13:29:39;7.85;;;3.47;;
54805;SDS011;62866;55.776;37.496;2024-03-22T13:32:05;8.27;;;3.63;;
54805;SDS011;62866;55.776;37.496;2024-03-22T13:34:33;7.72;;;3.70;;
54805;SDS011;62866;55.776;37.496;2024-03-22T13:36:59;10.00;;;3.58;;
54805;SDS011;62866;55.776;37.496;2024-03-22T13:39:25;10.55;;;4.00;;
54805;SDS011;62866;55.776;37.496;2024-03-22T13:41:50;6.53;;;3.00;;
54805;SDS011;62866;55.776;37.496;2024-03-22T13:44:16;9.73;;;3.15;;
54805;SDS011;62866;55.776;37.496;2024-03-22T13:46:41;5.90;;;3.08;;
54805;SDS011;62866;55.776;37.496;2024-03-22T13:49:16;6.78;;;3.42;;
54805;SDS011;62866;55.776;37.496;2024-03-22T13:51:43;6.95;;;3.13;;
54805;SDS011;62866;55.776;37.496;2024-03-22T13:54:09;5.10;;;3.30;;
54805;SDS011;62866;55.776;37.496;2024-03-22T13:56:38;7.05;;;2.80;;
54805;SDS011;62866;55.776;37.496;2024-03-22T13:59:04;6.57;;;2.60;;
54805;SDS011;62866;55.776;37.496;2024-03-22T14:01:36;6.93;;;2.95;;
54805;SDS011;62866;55.776;37.496;2024-03-22T14:04:02;4.03;;;2.50;;
54805;SDS011;62866;55.776;37.496;2024-03-22T14:06:31;7.43;;;2.97;;
54805;SDS011;62866;55.776;37.496;2024-03-22T14:08:57;6.80;;;2.67;;
54805;SDS011;62866;55.776;37.496;2024-03-22T14:11:27;7.78;;;3.65;;
54805;SDS011;62866;55.776;37.496;2024-03-22T14:13:53;7.93;;;2.88;;
54805;SDS011;62866;55.776;37.496;2024-03-22T14:16:18;10.30;;;3.17;;
54805;SDS011;62866;55.776;37.496;2024-03-22T14:18:44;5.70;;;3.13;;
54805;SDS011;62866;55.776;37.496;2024-03-22T14:21:13;5.35;;;2.80;;
54805;SDS011;62866;55.776;37.496;2024-03-22T14:23:43;8.18;;;3.33;;
54805;SDS011;62866;55.776;37.496;2024-03-22T14:26:12;4.38;;;2.53;;